Time;durP1;ratioP1;P1;durP2;ratioP2;P2;SDS_P1;SDS_P2;PMS_P1;PMS_P2;Temp;Humidity;BMP_temperature;BMP_pressure;BME280_temperature;BME280_humidity;BME280_pressure;Samples;Min_cycle;Max_cycle;Signal;HPM_P1;HPM_P2
2021/09/04 00:00:09;;;;;;;7.72;3.95;;;20.50;63.40;;;;;;5053503;28;20025;-71
2021/09/04 00:02:34;;;;;;;6.43;3.63;;;20.50;63.50;;;;;;5053406;28;20455;-70
2021/09/04 00:05:00;;;;;;;6.65;3.67;;;20.50;63.50;;;;;;5053419;28;20120;-71
2021/09/04 00:07:28;;;;;;;6.32;3.38;;;20.50;63.50;;;;;;5053423;28;20049;-71
2021/09/04 00:09:53;;;;;;;5.85;3.50;;;20.50;63.50;;;;;;5052093;28;20037;-71
2021/09/04 00:12:19;;;;;;;8.13;3.80;;;20.50;63.60;;;;;;5053286;28;20279;-71
2021/09/04 00:14:45;;;;;;;7.10;3.58;;;20.50;63.60;;;;;;5053318;28;20021;-71
2021/09/04 00:17:10;;;;;;;7.10;4.05;;;20.50;63.60;;;;;;5053144;28;20025;-70
2021/09/04 00:19:37;;;;;;;6.82;3.83;;;20.50;63.60;;;;;;5053140;28;20021;-70
2021/09/04 00:22:03;;;;;;;5.82;3.40;;;20.50;63.60;;;;;;5053118;28;20024;-70
2021/09/04 00:24:29;;;;;;;5.75;3.63;;;20.40;63.60;;;;;;5051596;28;20045;-70
2021/09/04 00:26:54;;;;;;;7.05;3.88;;;20.40;63.60;;;;;;5053026;28;20388;-71
2021/09/04 00:29:20;;;;;;;6.90;3.40;;;20.40;63.70;;;;;;5051735;28;20473;-71
2021/09/04 00:31:45;;;;;;;6.88;3.80;;;20.40;63.70;;;;;;5052282;28;20028;-70
2021/09/04 00:34:11;;;;;;;7.93;4.00;;;20.40;63.70;;;;;;5052966;28;20032;-70
2021/09/04 00:36:36;;;;;;;6.40;3.88;;;20.40;63.70;;;;;;5052895;28;20151;-70
2021/09/04 00:39:02;;;;;;;6.88;3.35;;;20.40;63.70;;;;;;5051684;28;20132;-69
2021/09/04 00:41:28;;;;;;;7.40;3.85;;;20.40;63.70;;;;;;5052847;28;20029;-70
2021/09/04 00:43:53;;;;;;;6.30;3.70;;;20.40;63.70;;;;;;5053013;28;20029;-70
2021/09/04 00:46:19;;;;;;;6.68;3.78;;;20.40;63.70;;;;;;5052753;28;20025;-70
2021/09/04 00:48:44;;;;;;;7.18;3.72;;;20.40;63.70;;;;;;5053043;28;20444;-70
2021/09/04 00:51:10;;;;;;;6.50;3.78;;;20.40;63.80;;;;;;5052764;28;20025;-70
2021/09/04 00:53:38;;;;;;;7.15;3.53;;;20.30;63.80;;;;;;5052678;28;20024;-70
2021/09/04 00:56:04;;;;;;;6.30;3.53;;;20.30;63.80;;;;;;5052642;28;20025;-70
2021/09/04 00:58:30;;;;;;;7.18;3.83;;;20.30;63.80;;;;;;5051419;28;20031;-70
2021/09/04 01:00:55;;;;;;;6.95;3.40;;;20.30;63.80;;;;;;5052534;28;20021;-70
2021/09/04 01:03:21;;;;;;;7.95;3.65;;;20.30;63.80;;;;;;5052563;28;20033;-70
2021/09/04 01:05:48;;;;;;;7.13;4.07;;;20.30;63.80;;;;;;5052535;28;20551;-70
2021/09/04 01:08:13;;;;;;;8.45;4.70;;;20.30;63.90;;;;;;5052419;28;20384;-70
2021/09/04 01:10:39;;;;;;;7.15;3.72;;;20.30;63.90;;;;;;5052558;28;20029;-70
2021/09/04 01:13:05;;;;;;;7.00;3.60;;;20.30;64.00;;;;;;5051255;28;20064;-70
2021/09/04 01:15:30;;;;;;;5.63;3.42;;;20.30;64.00;;;;;;5052414;28;20437;-71
2021/09/04 01:18:00;;;;;;;9.48;4.07;;;20.20;64.00;;;;;;5052463;28;20028;-71
2021/09/04 01:20:26;;;;;;;6.32;3.92;;;20.20;64.00;;;;;;5051176;28;20754;-70
2021/09/04 01:22:52;;;;;;;6.78;3.83;;;20.20;64.00;;;;;;5052482;28;20037;-70
2021/09/04 01:25:24;;;;;;;6.95;4.13;;;20.20;64.10;;;;;;5052377;28;20040;-70
2021/09/04 01:27:50;;;;;;;6.43;3.70;;;20.20;64.10;;;;;;5052375;28;20025;-70
2021/09/04 01:30:16;;;;;;;8.05;4.22;;;20.20;64.10;;;;;;5052281;28;20106;-71
2021/09/04 01:32:42;;;;;;;6.85;3.78;;;20.20;64.10;;;;;;5052301;28;20025;-71
2021/09/04 01:35:10;;;;;;;6.13;3.72;;;20.20;64.20;;;;;;5052347;28;20028;-71
2021/09/04 01:37:37;;;;;;;8.20;4.13;;;20.20;64.10;;;;;;5051989;28;20041;-70
2021/09/04 01:40:07;;;;;;;7.43;3.75;;;20.20;64.20;;;;;;5052303;28;20055;-70
2021/09/04 01:42:33;;;;;;;7.38;4.13;;;20.10;64.20;;;;;;5052274;28;20033;-70
2021/09/04 01:44:58;;;;;;;7.53;3.90;;;20.20;64.20;;;;;;5056018;28;20083;-70
2021/09/04 01:47:27;;;;;;;8.90;4.53;;;20.20;64.20;;;;;;5056065;28;20504;-70
2021/09/04 01:49:56;;;;;;;6.97;3.75;;;20.10;64.20;;;;;;5054649;28;20029;-70
2021/09/04 01:52:22;;;;;;;7.82;4.25;;;20.10;64.20;;;;;;5056129;28;20078;-70
2021/09/04 01:54:49;;;;;;;7.10;3.72;;;20.10;64.20;;;;;;5056033;28;20079;-70
2021/09/04 01:57:15;;;;;;;7.82;4.78;;;20.10;64.20;;;;;;5056070;28;20025;-70
2021/09/04 01:59:40;;;;;;;6.85;3.83;;;20.10;64.30;;;;;;5055713;28;20029;-71
2021/09/04 02:02:09;;;;;;;7.43;4.47;;;20.10;64.30;;;;;;5054419;28;20025;-70
2021/09/04 02:04:35;;;;;;;7.55;3.90;;;20.10;64.30;;;;;;5055522;28;20063;-71
2021/09/04 02:07:01;;;;;;;9.07;4.65;;;20.10;64.30;;;;;;5055651;28;20533;-71
2021/09/04 02:09:26;;;;;;;7.50;4.68;;;20.00;64.40;;;;;;5055717;28;20021;-70
2021/09/04 02:11:52;;;;;;;7.18;4.20;;;20.00;64.30;;;;;;5054237;28;20464;-70
2021/09/04 02:14:18;;;;;;;8.70;4.43;;;20.00;64.30;;;;;;5054354;28;20021;-71
2021/09/04 02:16:43;;;;;;;6.97;4.45;;;20.00;64.40;;;;;;5055505;28;20033;-71
2021/09/04 02:19:09;;;;;;;7.80;4.30;;;20.00;64.40;;;;;;5055488;28;20029;-71
2021/09/04 02:21:34;;;;;;;6.95;4.07;;;20.00;64.40;;;;;;5055793;28;20025;-70
2021/09/04 02:24:00;;;;;;;7.55;4.60;;;20.00;64.40;;;;;;5055699;28;20380;-70
2021/09/04 02:26:26;;;;;;;7.70;4.30;;;20.00;64.40;;;;;;5054173;28;20025;-70
2021/09/04 02:28:52;;;;;;;7.07;4.15;;;20.00;64.50;;;;;;5055363;28;20096;-71
2021/09/04 02:31:23;;;;;;;7.40;4.40;;;20.00;64.50;;;;;;5055308;28;20021;-70
2021/09/04 02:33:48;;;;;;;6.82;4.20;;;20.00;64.40;;;;;;5055257;28;20477;-70
2021/09/04 02:36:14;;;;;;;9.10;4.95;;;20.00;64.50;;;;;;5053872;28;20033;-70
2021/09/04 02:38:39;;;;;;;7.38;4.70;;;20.00;64.50;;;;;;5053761;28;20129;-70
2021/09/04 02:41:05;;;;;;;8.43;4.55;;;19.90;64.50;;;;;;5055022;28;20021;-70
2021/09/04 02:43:30;;;;;;;7.80;4.50;;;20.00;64.50;;;;;;5053667;28;20116;-70
2021/09/04 02:45:56;;;;;;;7.97;4.43;;;20.00;64.50;;;;;;5054984;28;20033;-71
2021/09/04 02:48:21;;;;;;;7.85;4.72;;;19.90;64.60;;;;;;5054797;28;20098;-70
2021/09/04 02:50:47;;;;;;;7.53;4.30;;;20.00;64.60;;;;;;5054882;28;20029;-70
2021/09/04 02:53:12;;;;;;;7.97;4.63;;;19.90;64.60;;;;;;5054847;28;20486;-70
2021/09/04 02:55:38;;;;;;;8.95;4.70;;;19.90;64.60;;;;;;5054036;28;20108;-70
2021/09/04 02:58:03;;;;;;;9.77;4.85;;;19.90;64.60;;;;;;5055023;28;20025;-70
2021/09/04 03:00:29;;;;;;;8.65;4.80;;;19.90;64.60;;;;;;5054677;28;20032;-71
2021/09/04 03:02:55;;;;;;;10.90;5.00;;;19.90;64.70;;;;;;5054523;28;20074;-70
2021/09/04 03:05:21;;;;;;;7.93;4.97;;;19.80;64.60;;;;;;5054608;28;20055;-71
2021/09/04 03:07:47;;;;;;;9.23;4.90;;;19.80;64.70;;;;;;5054552;28;20021;-70
2021/09/04 03:10:13;;;;;;;9.20;4.90;;;19.90;64.60;;;;;;5054556;28;20029;-71
2021/09/04 03:12:39;;;;;;;8.27;4.88;;;19.80;64.70;;;;;;5054743;28;20025;-70
2021/09/04 03:15:05;;;;;;;9.60;5.00;;;19.80;64.70;;;;;;5053189;28;20029;-70
2021/09/04 03:17:31;;;;;;;9.52;4.80;;;19.80;64.70;;;;;;5054276;28;20033;-71
2021/09/04 03:19:56;;;;;;;8.73;5.30;;;19.80;64.70;;;;;;5054313;28;20036;-70
2021/09/04 03:22:22;;;;;;;9.10;4.63;;;19.80;64.70;;;;;;5052904;28;20025;-70
2021/09/04 03:24:47;;;;;;;9.68;5.10;;;19.80;64.60;;;;;;5054215;28;20377;-70
2021/09/04 03:27:13;;;;;;;8.95;5.10;;;19.80;64.70;;;;;;5054136;28;20025;-71
2021/09/04 03:29:38;;;;;;;9.55;5.07;;;19.80;64.60;;;;;;5054104;28;20084;-70
2021/09/04 03:32:04;;;;;;;8.38;5.03;;;19.80;64.60;;;;;;5053924;28;20532;-70
2021/09/04 03:34:29;;;;;;;8.82;4.90;;;19.80;64.60;;;;;;5054051;28;20021;-71
2021/09/04 03:36:55;;;;;;;9.73;5.10;;;19.80;64.70;;;;;;5052608;28;20082;-71
2021/09/04 03:39:20;;;;;;;8.13;4.85;;;19.80;64.60;;;;;;5053787;28;20037;-71
2021/09/04 03:41:46;;;;;;;10.18;5.05;;;19.80;64.60;;;;;;5054151;28;20032;-71
2021/09/04 03:44:11;;;;;;;8.10;4.40;;;19.80;64.60;;;;;;5053755;28;20037;-71
2021/09/04 03:46:37;;;;;;;7.95;4.53;;;19.70;64.60;;;;;;5052365;28;20512;-71
2021/09/04 03:49:02;;;;;;;9.13;5.00;;;19.80;64.60;;;;;;5053656;28;20396;-70
2021/09/04 03:51:28;;;;;;;10.50;5.25;;;19.80;64.60;;;;;;5052445;28;20021;-71
2021/09/04 03:53:54;;;;;;;7.95;5.10;;;19.80;64.60;;;;;;5053601;28;20036;-71
2021/09/04 03:56:20;;;;;;;9.63;5.07;;;19.80;64.60;;;;;;5053902;28;20368;-71
2021/09/04 03:58:45;;;;;;;8.48;5.00;;;19.70;64.60;;;;;;5053574;28;20102;-71
2021/09/04 04:01:11;;;;;;;9.27;5.13;;;19.70;64.60;;;;;;5052183;28;20105;-71
2021/09/04 04:03:36;;;;;;;9.73;5.75;;;19.80;64.60;;;;;;5053335;28;20072;-71
2021/09/04 04:06:02;;;;;;;8.40;5.13;;;19.70;64.60;;;;;;5052965;28;20052;-71
2021/09/04 04:08:27;;;;;;;9.32;5.53;;;19.70;64.60;;;;;;5052863;28;20071;-70
2021/09/04 04:10:53;;;;;;;9.88;4.97;;;19.70;64.60;;;;;;5053384;28;20029;-70
2021/09/04 04:13:18;;;;;;;8.73;5.15;;;19.70;64.60;;;;;;5053341;28;20350;-71
2021/09/04 04:15:44;;;;;;;9.52;5.57;;;19.70;64.60;;;;;;5051957;28;20491;-71
2021/09/04 04:18:09;;;;;;;9.18;5.22;;;19.70;64.60;;;;;;5053310;28;20021;-71
2021/09/04 04:20:35;;;;;;;9.25;5.38;;;19.70;64.60;;;;;;5051972;28;20029;-71
2021/09/04 04:23:00;;;;;;;11.70;5.80;;;19.70;64.60;;;;;;5053106;28;20025;-71
2021/09/04 04:25:26;;;;;;;9.88;6.00;;;19.70;64.60;;;;;;5051869;28;20052;-71
2021/09/04 04:27:52;;;;;;;9.48;4.88;;;19.70;64.50;;;;;;5053138;28;20025;-71
2021/09/04 04:30:17;;;;;;;9.15;5.63;;;19.70;64.50;;;;;;5053084;28;20039;-71
2021/09/04 04:32:43;;;;;;;8.48;5.15;;;19.70;64.50;;;;;;5051714;28;20075;-71
2021/09/04 04:35:09;;;;;;;8.55;4.75;;;19.70;64.50;;;;;;5053008;28;20074;-71
2021/09/04 04:37:35;;;;;;;9.32;5.55;;;19.70;64.60;;;;;;5052883;28;20045;-71
2021/09/04 04:40:00;;;;;;;10.77;5.88;;;19.70;64.60;;;;;;5052955;28;20035;-70
2021/09/04 04:42:26;;;;;;;9.23;5.20;;;19.70;64.60;;;;;;5052855;28;20419;-71
2021/09/04 04:44:51;;;;;;;9.02;5.35;;;19.60;64.50;;;;;;5052652;28;20056;-70
2021/09/04 04:47:17;;;;;;;10.15;5.95;;;19.60;64.50;;;;;;5052817;28;20025;-70
2021/09/04 04:49:42;;;;;;;9.20;5.70;;;19.70;64.50;;;;;;5052803;28;20025;-70
2021/09/04 04:52:08;;;;;;;10.77;6.25;;;19.70;64.50;;;;;;5052651;28;20021;-70
2021/09/04 04:54:34;;;;;;;9.07;5.30;;;19.60;64.50;;;;;;5052732;28;20116;-71
2021/09/04 04:56:59;;;;;;;9.18;5.35;;;19.70;64.50;;;;;;5052674;28;20480;-71
2021/09/04 04:59:25;;;;;;;9.32;5.50;;;19.60;64.50;;;;;;5052676;28;20159;-70
2021/09/04 05:01:50;;;;;;;10.25;5.50;;;19.60;64.60;;;;;;5052901;28;20071;-71
2021/09/04 05:04:16;;;;;;;10.25;5.88;;;19.60;64.60;;;;;;5052555;28;20041;-71
2021/09/04 05:06:41;;;;;;;11.10;6.43;;;19.60;64.60;;;;;;5052621;28;20029;-71
2021/09/04 05:09:07;;;;;;;10.25;6.00;;;19.60;64.50;;;;;;5052663;28;20036;-71
2021/09/04 05:11:32;;;;;;;11.32;5.90;;;19.60;64.60;;;;;;5051289;28;20083;-71
2021/09/04 05:13:58;;;;;;;10.68;6.15;;;19.60;64.50;;;;;;5051311;28;20032;-71
2021/09/04 05:16:23;;;;;;;11.60;6.00;;;19.60;64.60;;;;;;5052420;28;20388;-70
2021/09/04 05:18:49;;;;;;;10.10;5.40;;;19.60;64.50;;;;;;5054938;28;20017;-71
2021/09/04 05:21:14;;;;;;;10.52;5.63;;;19.60;64.60;;;;;;5056422;28;20492;-70
2021/09/04 05:23:40;;;;;;;9.48;6.03;;;19.60;64.60;;;;;;5055097;28;20029;-70
2021/09/04 05:26:05;;;;;;;11.98;6.57;;;19.60;64.50;;;;;;5056384;28;20102;-71
2021/09/04 05:28:31;;;;;;;9.98;5.55;;;19.60;64.50;;;;;;5055075;28;20029;-71
2021/09/04 05:30:59;;;;;;;10.85;6.60;;;19.60;64.60;;;;;;5056222;28;20107;-71
2021/09/04 05:33:25;;;;;;;11.32;6.88;;;19.60;64.60;;;;;;5056230;28;20033;-70
2021/09/04 05:35:51;;;;;;;10.77;6.43;;;19.50;64.60;;;;;;5056258;28;20029;-70
2021/09/04 05:38:16;;;;;;;9.15;5.72;;;19.50;64.60;;;;;;5054991;28;20044;-71
2021/09/04 05:40:42;;;;;;;10.63;5.85;;;19.50;64.60;;;;;;5056378;28;20628;-70
2021/09/04 05:43:07;;;;;;;11.27;6.35;;;19.50;64.60;;;;;;5055978;28;20033;-71
2021/09/04 05:45:33;;;;;;;11.65;7.05;;;19.50;64.60;;;;;;5055905;28;20068;-70
2021/09/04 05:47:58;;;;;;;9.55;6.20;;;19.50;64.60;;;;;;5055864;28;20047;-71
2021/09/04 05:50:24;;;;;;;10.48;6.22;;;19.50;64.60;;;;;;5056035;28;20075;-70
2021/09/04 05:52:49;;;;;;;10.70;6.32;;;19.60;64.70;;;;;;5055741;28;20159;-71
2021/09/04 05:55:15;;;;;;;10.57;6.25;;;19.50;64.70;;;;;;5056171;28;20100;-71
2021/09/04 05:57:40;;;;;;;10.13;5.57;;;19.50;64.70;;;;;;5054588;28;20033;-71
2021/09/04 06:00:06;;;;;;;9.85;5.97;;;19.50;64.70;;;;;;5055748;28;20021;-70
2021/09/04 06:02:32;;;;;;;11.63;6.35;;;19.50;64.70;;;;;;5055915;28;20036;-71
2021/09/04 06:04:57;;;;;;;12.13;6.78;;;19.50;64.70;;;;;;5055562;28;20059;-70
2021/09/04 06:07:23;;;;;;;11.60;6.78;;;19.50;64.70;;;;;;5055641;28;20109;-71
2021/09/04 06:09:48;;;;;;;8.55;5.72;;;19.50;64.70;;;;;;5055576;28;20025;-71
2021/09/04 06:12:14;;;;;;;10.05;6.28;;;19.50;64.60;;;;;;5055593;28;20078;-71
2021/09/04 06:14:39;;;;;;;11.23;6.57;;;19.50;64.60;;;;;;5055486;28;20465;-70
2021/09/04 06:17:05;;;;;;;9.77;6.50;;;19.50;64.60;;;;;;5054219;28;20056;-71
2021/09/04 06:19:30;;;;;;;12.43;6.90;;;19.50;64.60;;;;;;5054534;28;20111;-70
2021/09/04 06:21:56;;;;;;;11.55;6.70;;;19.50;64.60;;;;;;5055525;28;20043;-71
2021/09/04 06:24:21;;;;;;;10.80;6.25;;;19.50;64.70;;;;;;5055391;28;20083;-70
2021/09/04 06:26:47;;;;;;;11.13;7.28;;;19.50;64.60;;;;;;5055312;28;20028;-70
2021/09/04 06:29:12;;;;;;;11.25;7.03;;;19.50;64.60;;;;;;5054643;28;20028;-70
2021/09/04 06:31:38;;;;;;;12.95;6.85;;;19.50;64.60;;;;;;5053348;28;20115;-71
2021/09/04 06:34:03;;;;;;;12.30;6.75;;;19.50;64.60;;;;;;5055171;28;20087;-69
2021/09/04 06:36:29;;;;;;;9.77;6.57;;;19.50;64.60;;;;;;5053880;28;20021;-70
2021/09/04 06:38:54;;;;;;;10.82;6.43;;;19.50;64.50;;;;;;5054875;28;20052;-70
2021/09/04 06:41:20;;;;;;;11.18;6.22;;;19.50;64.50;;;;;;5055071;28;20032;-70
2021/09/04 06:43:45;;;;;;;11.20;6.85;;;19.50;64.60;;;;;;5053595;28;20033;-70
2021/09/04 06:46:11;;;;;;;11.20;6.55;;;19.50;64.60;;;;;;5054952;28;20040;-70
2021/09/04 06:48:36;;;;;;;11.55;6.47;;;19.50;64.60;;;;;;5054826;28;20029;-70
2021/09/04 06:51:02;;;;;;;12.25;7.13;;;19.50;64.60;;;;;;5054845;28;20480;-70
2021/09/04 06:53:27;;;;;;;10.43;6.53;;;19.50;64.60;;;;;;5054831;28;20033;-70
2021/09/04 06:55:53;;;;;;;10.80;5.80;;;19.50;64.60;;;;;;5053705;28;20500;-70
2021/09/04 06:58:20;;;;;;;10.98;6.90;;;19.50;64.70;;;;;;5054713;28;20028;-70
2021/09/04 07:00:46;;;;;;;11.15;6.95;;;19.50;64.60;;;;;;5054607;28;20028;-70
2021/09/04 07:03:11;;;;;;;10.00;6.88;;;19.50;64.60;;;;;;5054602;28;20021;-69
2021/09/04 07:05:37;;;;;;;10.48;6.35;;;19.50;64.60;;;;;;5054652;28;20036;-70
2021/09/04 07:08:03;;;;;;;10.48;6.75;;;19.50;64.60;;;;;;5054614;28;20024;-70
2021/09/04 07:10:28;;;;;;;10.23;6.35;;;19.50;64.60;;;;;;5054569;28;20476;-70
2021/09/04 07:12:54;;;;;;;10.82;7.00;;;19.50;64.50;;;;;;5054304;28;20031;-70
2021/09/04 07:15:19;;;;;;;11.40;7.28;;;19.50;64.50;;;;;;5054440;28;20059;-71
2021/09/04 07:17:45;;;;;;;12.43;7.03;;;19.50;64.50;;;;;;5054373;28;20427;-72
2021/09/04 07:20:11;;;;;;;11.20;6.65;;;19.50;64.60;;;;;;5052980;28;20029;-70
2021/09/04 07:22:36;;;;;;;11.57;7.25;;;19.50;64.60;;;;;;5052915;28;20118;-71
2021/09/04 07:25:02;;;;;;;10.13;6.45;;;19.40;64.60;;;;;;5054125;28;20049;-72
2021/09/04 07:27:28;;;;;;;13.20;6.55;;;19.50;64.60;;;;;;5054050;28;20060;-71
2021/09/04 07:29:53;;;;;;;11.10;6.88;;;19.50;64.50;;;;;;5054151;28;20087;-71
2021/09/04 07:32:19;;;;;;;10.48;5.75;;;19.50;64.60;;;;;;5054190;28;20437;-71
2021/09/04 07:34:44;;;;;;;10.48;6.93;;;19.40;64.60;;;;;;5054258;28;20039;-72
2021/09/04 07:37:10;;;;;;;9.93;7.00;;;19.50;64.60;;;;;;5053955;28;20025;-72
2021/09/04 07:39:35;;;;;;;10.55;6.50;;;19.50;64.50;;;;;;5053936;28;20377;-72
2021/09/04 07:42:01;;;;;;;10.48;6.00;;;19.50;64.60;;;;;;5052362;28;20056;-72
2021/09/04 07:44:27;;;;;;;11.90;6.97;;;19.50;64.60;;;;;;5054005;28;20455;-72
2021/09/04 07:46:53;;;;;;;10.57;7.18;;;19.50;64.60;;;;;;5053754;28;20025;-72
2021/09/04 07:49:18;;;;;;;11.55;6.82;;;19.50;64.60;;;;;;5052408;28;20021;-72
2021/09/04 07:51:44;;;;;;;11.88;7.30;;;19.40;64.50;;;;;;5052432;28;20025;-72
2021/09/04 07:54:09;;;;;;;11.40;7.07;;;19.50;64.60;;;;;;5053761;28;20021;-72
2021/09/04 07:56:35;;;;;;;15.23;7.80;;;19.50;64.60;;;;;;5052295;28;20025;-71
2021/09/04 07:59:01;;;;;;;10.48;6.30;;;19.40;64.60;;;;;;5053811;28;20465;-71
2021/09/04 08:01:26;;;;;;;12.13;7.00;;;19.40;64.60;;;;;;5053362;28;20066;-71
2021/09/04 08:03:52;;;;;;;9.57;6.55;;;19.50;64.50;;;;;;5053716;28;20484;-72
2021/09/04 08:06:17;;;;;;;11.95;7.07;;;19.40;64.50;;;;;;5053467;28;20028;-72
2021/09/04 08:08:43;;;;;;;11.27;7.30;;;19.50;64.50;;;;;;5052039;28;20156;-72
2021/09/04 08:11:08;;;;;;;10.82;6.85;;;19.40;64.50;;;;;;5053183;28;20025;-72
2021/09/04 08:13:34;;;;;;;11.90;7.35;;;19.50;64.50;;;;;;5053285;28;20512;-72
2021/09/04 08:15:59;;;;;;;11.90;7.53;;;19.40;64.50;;;;;;5051966;28;20021;-71
2021/09/04 08:18:25;;;;;;;10.52;6.63;;;19.40;64.60;;;;;;5053255;28;20095;-72
2021/09/04 08:20:50;;;;;;;11.13;6.97;;;19.40;64.60;;;;;;5053207;28;20392;-72
2021/09/04 08:23:16;;;;;;;13.15;6.88;;;19.40;64.60;;;;;;5053071;28;20021;-72
2021/09/04 08:25:42;;;;;;;13.45;7.95;;;19.40;64.50;;;;;;5053267;28;20029;-71
2021/09/04 08:28:09;;;;;;;10.77;7.18;;;19.40;64.50;;;;;;5052955;28;20039;-71
2021/09/04 08:30:35;;;;;;;12.48;7.72;;;19.40;64.50;;;;;;5053006;28;20059;-71
2021/09/04 08:33:01;;;;;;;10.10;6.93;;;19.50;64.40;;;;;;5052940;28;20028;-71
2021/09/04 08:35:27;;;;;;;12.23;7.93;;;19.50;64.40;;;;;;5051638;28;20021;-71
2021/09/04 08:37:53;;;;;;;12.20;7.30;;;19.50;64.40;;;;;;5052549;28;20550;-71
2021/09/04 08:40:20;;;;;;;12.82;7.13;;;19.50;64.40;;;;;;5052878;28;20055;-70
2021/09/04 08:42:46;;;;;;;11.07;7.43;;;19.50;64.30;;;;;;5052754;28;20109;-71
2021/09/04 08:45:12;;;;;;;12.20;7.55;;;19.50;64.30;;;;;;5052827;28;20119;-71
2021/09/04 08:47:38;;;;;;;11.50;7.40;;;19.50;64.30;;;;;;5052872;28;20021;-71
2021/09/04 08:50:04;;;;;;;10.70;6.93;;;19.50;64.30;;;;;;5052711;28;20029;-71
2021/09/04 08:52:30;;;;;;;11.13;7.30;;;19.50;64.30;;;;;;5050878;28;20055;-71
2021/09/04 08:54:56;;;;;;;14.68;8.68;;;19.50;64.30;;;;;;5052607;28;20059;-71
2021/09/04 08:57:21;;;;;;;11.13;7.40;;;19.40;64.40;;;;;;5052876;28;20079;-72
2021/09/04 08:59:51;;;;;;;11.43;7.28;;;19.50;64.50;;;;;;5052798;28;20044;-71
2021/09/04 09:02:17;;;;;;;11.55;6.93;;;19.50;64.40;;;;;;5052527;28;20025;-71
2021/09/04 09:05:18;;;;;;;12.50;7.90;;;19.50;64.30;;;;;;5052524;28;20380;-71
2021/09/04 09:07:45;;;;;;;13.70;7.80;;;19.50;64.30;;;;;;5047838;28;20037;-71
2021/09/04 09:10:23;;;;;;;11.25;6.72;;;19.50;64.30;;;;;;5051232;28;20477;-71
2021/09/04 09:12:50;;;;;;;12.40;7.47;;;19.50;64.30;;;;;;5052546;28;20135;-72
2021/09/04 09:15:24;;;;;;;13.15;8.48;;;19.50;64.30;;;;;;5052769;28;20028;-71
2021/09/04 09:18:06;;;;;;;11.80;7.15;;;19.50;64.30;;;;;;5052786;28;20033;-70
2021/09/04 09:20:33;;;;;;;12.23;7.90;;;19.50;64.20;;;;;;5051200;28;20175;-71
2021/09/04 09:23:32;;;;;;;13.60;8.50;;;19.50;64.20;;;;;;5052532;28;20025;-71
2021/09/04 09:26:11;;;;;;;13.10;8.32;;;19.50;64.20;;;;;;5040237;28;20049;-71
2021/09/04 09:28:37;;;;;;;12.68;7.20;;;19.50;64.20;;;;;;5052509;28;20021;-71
2021/09/04 09:31:03;;;;;;;13.80;7.63;;;19.50;64.20;;;;;;5051002;28;20029;-71
2021/09/04 09:33:29;;;;;;;12.75;8.18;;;19.50;64.30;;;;;;5052179;28;20419;-71
2021/09/04 09:35:57;;;;;;;12.45;8.27;;;19.50;64.20;;;;;;5052193;28;20432;-71
2021/09/04 09:38:28;;;;;;;12.32;7.68;;;19.50;64.20;;;;;;5050681;28;20492;-71
2021/09/04 09:40:55;;;;;;;11.90;8.25;;;19.50;64.10;;;;;;5051995;28;20102;-71
2021/09/04 09:43:29;;;;;;;13.40;8.70;;;19.50;64.20;;;;;;5052135;28;20013;-71
2021/09/04 09:46:00;;;;;;;13.25;8.20;;;19.50;64.30;;;;;;5052285;28;20079;-71
2021/09/04 09:48:28;;;;;;;13.45;8.85;;;19.50;64.20;;;;;;5052068;28;20104;-71
2021/09/04 09:50:56;;;;;;;12.48;8.35;;;19.50;64.20;;;;;;5052142;28;20418;-71
2021/09/04 09:53:23;;;;;;;15.20;8.85;;;19.50;64.30;;;;;;5051941;28;20377;-71
2021/09/04 09:55:50;;;;;;;11.30;7.50;;;19.50;64.30;;;;;;5052137;28;20021;-71
2021/09/04 09:58:17;;;;;;;12.15;8.07;;;19.50;64.10;;;;;;5051975;28;20100;-71
2021/09/04 10:00:44;;;;;;;11.77;8.02;;;19.50;64.10;;;;;;5052040;28;20021;-71
2021/09/04 10:03:11;;;;;;;12.98;8.45;;;19.50;64.10;;;;;;5052234;28;20029;-71
2021/09/04 10:05:37;;;;;;;13.35;7.68;;;19.50;64.10;;;;;;5055080;28;20025;-71
2021/09/04 10:08:04;;;;;;;12.48;7.82;;;19.50;64.10;;;;;;5055569;28;20021;-71
2021/09/04 10:10:31;;;;;;;14.55;9.18;;;19.50;64.20;;;;;;5055407;28;20498;-71
2021/09/04 10:12:58;;;;;;;12.98;8.52;;;19.50;64.20;;;;;;5055531;28;20025;-71
2021/09/04 10:15:26;;;;;;;13.05;7.88;;;19.50;64.10;;;;;;5053974;28;20017;-71
2021/09/04 10:17:54;;;;;;;14.90;9.15;;;19.50;64.00;;;;;;5055268;28;20040;-71
2021/09/04 10:20:25;;;;;;;14.02;8.57;;;19.50;64.10;;;;;;5055267;28;20028;-71
2021/09/04 10:22:54;;;;;;;14.63;9.10;;;19.50;64.20;;;;;;5055555;28;20021;-71
2021/09/04 10:25:20;;;;;;;14.27;9.55;;;19.50;64.10;;;;;;5053952;28;20072;-71
2021/09/04 10:27:48;;;;;;;15.13;9.68;;;19.50;64.20;;;;;;5055194;28;20403;-71
2021/09/04 10:30:25;;;;;;;12.38;8.13;;;19.50;64.10;;;;;;5055052;28;20036;-71
2021/09/04 10:33:07;;;;;;;13.52;8.75;;;19.50;64.10;;;;;;5054955;28;20076;-71
2021/09/04 10:35:54;;;;;;;14.48;8.73;;;19.50;64.10;;;;;;5055076;28;20017;-72
2021/09/04 10:38:19;;;;;;;12.85;8.73;;;19.50;64.00;;;;;;5054859;28;20051;-71
2021/09/04 10:41:12;;;;;;;14.90;8.60;;;19.50;63.90;;;;;;5053623;28;20116;-71
2021/09/04 10:43:42;;;;;;;11.93;7.78;;;19.50;63.90;;;;;;5054714;28;20040;-71
2021/09/04 10:46:11;;;;;;;13.00;8.55;;;19.50;63.90;;;;;;5054765;28;20528;-71
2021/09/04 10:48:37;;;;;;;12.63;8.25;;;19.50;64.00;;;;;;5054655;28;20036;-71
2021/09/04 10:51:11;;;;;;;13.18;8.68;;;19.50;63.90;;;;;;5054709;28;20024;-71
2021/09/04 10:53:55;;;;;;;11.60;7.78;;;19.50;63.90;;;;;;5055009;28;20013;-71
2021/09/04 10:56:28;;;;;;;15.07;8.67;;;19.60;64.00;;;;;;5054972;28;20032;-71
2021/09/04 10:58:54;;;;;;;13.55;8.30;;;19.60;64.00;;;;;;5055089;28;20032;-71
2021/09/04 11:01:38;;;;;;;12.15;7.82;;;19.50;64.00;;;;;;5054638;28;20029;-71
2021/09/04 11:04:04;;;;;;;13.80;7.80;;;19.50;63.90;;;;;;5053173;28;20064;-71
2021/09/04 11:06:30;;;;;;;12.68;8.38;;;19.50;63.90;;;;;;5054507;28;20151;-71
2021/09/04 11:08:56;;;;;;;14.43;9.02;;;19.50;64.00;;;;;;5053312;28;20423;-71
2021/09/04 11:11:25;;;;;;;11.45;7.60;;;19.50;63.90;;;;;;5054444;28;20029;-71
2021/09/04 11:14:23;;;;;;;11.68;8.15;;;19.60;63.90;;;;;;5054394;28;20481;-71
2021/09/04 11:16:58;;;;;;;12.77;8.43;;;19.60;63.80;;;;;;5053886;28;20171;-71
2021/09/04 11:19:32;;;;;;;14.18;8.68;;;19.60;63.90;;;;;;5054670;28;20028;-71
2021/09/04 11:22:04;;;;;;;13.18;8.18;;;19.50;63.90;;;;;;5054058;28;20035;-71
2021/09/04 11:24:47;;;;;;;12.48;7.97;;;19.60;63.80;;;;;;5054090;28;20087;-71
2021/09/04 11:27:18;;;;;;;13.33;8.33;;;19.60;63.80;;;;;;5054210;28;20025;-71
2021/09/04 11:29:49;;;;;;;13.90;8.65;;;19.60;63.80;;;;;;5054017;28;20350;-71
2021/09/04 11:32:16;;;;;;;13.85;8.70;;;19.60;63.80;;;;;;5054112;28;20029;-71
2021/09/04 11:34:45;;;;;;;13.27;8.32;;;19.60;63.80;;;;;;5054149;28;20025;-71
2021/09/04 11:37:30;;;;;;;13.32;8.55;;;19.60;63.80;;;;;;5052567;28;20021;-71
2021/09/04 11:40:18;;;;;;;14.07;8.70;;;19.60;63.80;;;;;;5054131;28;20451;-71
2021/09/04 11:42:46;;;;;;;13.93;8.90;;;19.60;63.90;;;;;;5053756;28;20017;-71
2021/09/04 11:45:21;;;;;;;13.30;7.80;;;19.60;63.80;;;;;;5052470;28;20396;-71
2021/09/04 11:47:51;;;;;;;14.50;8.73;;;19.60;63.80;;;;;;5053769;28;20021;-71
2021/09/04 11:50:20;;;;;;;12.23;8.38;;;19.60;63.70;;;;;;5053780;28;20108;-71
2021/09/04 11:52:46;;;;;;;13.13;8.60;;;19.70;63.70;;;;;;5053640;28;20100;-71
2021/09/04 11:55:14;;;;;;;12.95;8.65;;;19.70;63.70;;;;;;5052365;28;20473;-71
2021/09/04 11:57:42;;;;;;;13.25;8.63;;;19.70;63.70;;;;;;5052251;28;20029;-71
2021/09/04 12:00:16;;;;;;;14.35;8.68;;;19.70;63.70;;;;;;5053541;28;20138;-71
2021/09/04 12:02:44;;;;;;;12.27;8.48;;;19.70;63.70;;;;;;5053571;28;20047;-71
2021/09/04 12:05:10;;;;;;;12.48;7.95;;;19.70;63.60;;;;;;5053398;28;20037;-71
2021/09/04 12:07:37;;;;;;;12.55;8.18;;;19.70;63.60;;;;;;5052133;28;20026;-71
2021/09/04 12:10:04;;;;;;;13.43;8.20;;;19.70;63.60;;;;;;5053360;28;20068;-71
2021/09/04 12:12:30;;;;;;;13.48;8.85;;;19.70;63.60;;;;;;5053125;28;20362;-71
2021/09/04 12:14:56;;;;;;;12.43;8.10;;;19.70;63.60;;;;;;5053157;28;20078;-71
2021/09/04 12:17:22;;;;;;;13.73;8.90;;;19.70;63.60;;;;;;5053301;28;20389;-71
2021/09/04 12:19:49;;;;;;;13.63;8.43;;;19.70;63.60;;;;;;5053171;28;20021;-71
2021/09/04 12:22:15;;;;;;;16.35;9.35;;;19.70;63.60;;;;;;5053143;28;20025;-71
2021/09/04 12:24:40;;;;;;;12.68;8.80;;;19.80;63.50;;;;;;5052996;28;20041;-71
2021/09/04 12:27:07;;;;;;;12.38;8.27;;;19.80;63.50;;;;;;5052686;28;20135;-71
2021/09/04 12:29:33;;;;;;;11.85;7.70;;;19.70;63.50;;;;;;5052567;28;20025;-71
2021/09/04 12:32:11;;;;;;;13.98;8.50;;;19.80;63.50;;;;;;5053215;28;20027;-71
2021/09/04 12:34:38;;;;;;;12.50;8.57;;;19.80;63.60;;;;;;5053157;28;20028;-71
2021/09/04 12:37:23;;;;;;;12.30;8.57;;;19.80;63.50;;;;;;5052859;28;20376;-71
2021/09/04 12:39:49;;;;;;;12.98;8.55;;;19.80;63.50;;;;;;5051536;28;20111;-71